sensor_id;sensor_type;location;lat;lon;timestamp;P1;durP1;ratioP1;P2;durP2;ratioP2
49858;SDS011;35756;52.346;13.622;2023-06-10T00:02:10;10.13;;;5.32;;
49858;SDS011;35756;52.346;13.622;2023-06-10T00:08:31;9.20;;;5.13;;
49858;SDS011;35756;52.346;13.622;2023-06-10T00:11:20;13.10;;;5.53;;
49858;SDS011;35756;52.346;13.622;2023-06-10T00:13:48;10.68;;;5.43;;
49858;SDS011;35756;52.346;13.622;2023-06-10T00:16:19;11.80;;;5.40;;
49858;SDS011;35756;52.346;13.622;2023-06-10T00:18:56;7.32;;;5.47;;
49858;SDS011;35756;52.346;13.622;2023-06-10T00:21:26;10.45;;;5.13;;
49858;SDS011;35756;52.346;13.622;2023-06-10T00:23:52;12.75;;;5.38;;
49858;SDS011;35756;52.346;13.622;2023-06-10T00:26:27;13.75;;;5.45;;
49858;SDS011;35756;52.346;13.622;2023-06-10T00:29:16;9.35;;;5.40;;
49858;SDS011;35756;52.346;13.622;2023-06-10T00:32:12;10.25;;;5.22;;
49858;SDS011;35756;52.346;13.622;2023-06-10T00:41:21;13.15;;;5.28;;
49858;SDS011;35756;52.346;13.622;2023-06-10T00:44:08;9.50;;;6.03;;
49858;SDS011;35756;52.346;13.622;2023-06-10T00:46:36;18.52;;;5.68;;
49858;SDS011;35756;52.346;13.622;2023-06-10T00:49:07;8.55;;;5.50;;
49858;SDS011;35756;52.346;13.622;2023-06-10T00:55:00;11.05;;;5.30;;
49858;SDS011;35756;52.346;13.622;2023-06-10T00:57:49;12.48;;;5.10;;
49858;SDS011;35756;52.346;13.622;2023-06-10T01:00:18;11.48;;;5.25;;
49858;SDS011;35756;52.346;13.622;2023-06-10T01:03:00;9.23;;;5.35;;
49858;SDS011;35756;52.346;13.622;2023-06-10T01:05:43;11.35;;;5.57;;
49858;SDS011;35756;52.346;13.622;2023-06-10T01:11:11;10.55;;;5.28;;
49858;SDS011;35756;52.346;13.622;2023-06-10T01:13:45;8.95;;;5.38;;
49858;SDS011;35756;52.346;13.622;2023-06-10T01:16:44;10.98;;;4.82;;
49858;SDS011;35756;52.346;13.622;2023-06-10T01:19:13;12.00;;;5.80;;
49858;SDS011;35756;52.346;13.622;2023-06-10T01:21:42;10.73;;;6.55;;
49858;SDS011;35756;52.346;13.622;2023-06-10T01:24:13;11.45;;;6.28;;
49858;SDS011;35756;52.346;13.622;2023-06-10T01:26:59;11.50;;;5.80;;
49858;SDS011;35756;52.346;13.622;2023-06-10T01:29:37;13.88;;;6.03;;
49858;SDS011;35756;52.346;13.622;2023-06-10T01:35:21;7.32;;;5.03;;
49858;SDS011;35756;52.346;13.622;2023-06-10T01:38:11;12.18;;;6.03;;
49858;SDS011;35756;52.346;13.622;2023-06-10T01:40:55;11.48;;;5.30;;
49858;SDS011;35756;52.346;13.622;2023-06-10T01:43:33;14.00;;;6.20;;
49858;SDS011;35756;52.346;13.622;2023-06-10T01:46:14;10.48;;;5.35;;
49858;SDS011;35756;52.346;13.622;2023-06-10T01:48:49;9.32;;;5.10;;
49858;SDS011;35756;52.346;13.622;2023-06-10T01:54:24;10.82;;;5.80;;
49858;SDS011;35756;52.346;13.622;2023-06-10T01:57:00;9.93;;;5.40;;
49858;SDS011;35756;52.346;13.622;2023-06-10T01:59:36;8.63;;;5.68;;
49858;SDS011;35756;52.346;13.622;2023-06-10T02:02:08;13.02;;;5.40;;
49858;SDS011;35756;52.346;13.622;2023-06-10T02:04:33;10.93;;;5.18;;
49858;SDS011;35756;52.346;13.622;2023-06-10T02:06:59;11.13;;;4.88;;
49858;SDS011;35756;52.346;13.622;2023-06-10T02:09:29;7.93;;;4.97;;
49858;SDS011;35756;52.346;13.622;2023-06-10T02:12:05;9.15;;;5.68;;
49858;SDS011;35756;52.346;13.622;2023-06-10T02:14:37;9.75;;;5.40;;
49858;SDS011;35756;52.346;13.622;2023-06-10T02:17:15;12.15;;;5.43;;
49858;SDS011;35756;52.346;13.622;2023-06-10T02:19:45;12.35;;;6.47;;
49858;SDS011;35756;52.346;13.622;2023-06-10T02:22:26;9.45;;;5.80;;
49858;SDS011;35756;52.346;13.622;2023-06-10T02:25:37;9.88;;;5.95;;
49858;SDS011;35756;52.346;13.622;2023-06-10T02:28:03;10.52;;;6.40;;
49858;SDS011;35756;52.346;13.622;2023-06-10T02:30:32;11.25;;;6.15;;
49858;SDS011;35756;52.346;13.622;2023-06-10T02:33:17;11.90;;;5.82;;
49858;SDS011;35756;52.346;13.622;2023-06-10T02:35:48;10.98;;;6.38;;
49858;SDS011;35756;52.346;13.622;2023-06-10T02:38:17;9.65;;;6.22;;
49858;SDS011;35756;52.346;13.622;2023-06-10T02:41:20;11.60;;;6.57;;
49858;SDS011;35756;52.346;13.622;2023-06-10T02:44:03;9.52;;;6.38;;
49858;SDS011;35756;52.346;13.622;2023-06-10T02:46:29;11.88;;;6.57;;
49858;SDS011;35756;52.346;13.622;2023-06-10T02:48:57;10.65;;;5.45;;
49858;SDS011;35756;52.346;13.622;2023-06-10T02:51:28;8.27;;;6.10;;
49858;SDS011;35756;52.346;13.622;2023-06-10T02:54:03;11.93;;;6.03;;
49858;SDS011;35756;52.346;13.622;2023-06-10T02:56:47;8.85;;;5.80;;
49858;SDS011;35756;52.346;13.622;2023-06-10T02:59:21;10.18;;;5.68;;
49858;SDS011;35756;52.346;13.622;2023-06-10T03:01:56;11.25;;;5.63;;
49858;SDS011;35756;52.346;13.622;2023-06-10T03:04:21;12.30;;;5.70;;
49858;SDS011;35756;52.346;13.622;2023-06-10T03:06:48;11.27;;;6.18;;
49858;SDS011;35756;52.346;13.622;2023-06-10T03:09:22;11.43;;;6.35;;
49858;SDS011;35756;52.346;13.622;2023-06-10T03:12:01;11.73;;;6.55;;
49858;SDS011;35756;52.346;13.622;2023-06-10T03:14:56;12.25;;;6.30;;
49858;SDS011;35756;52.346;13.622;2023-06-10T03:17:45;13.20;;;6.60;;
49858;SDS011;35756;52.346;13.622;2023-06-10T03:23:20;10.52;;;7.45;;
49858;SDS011;35756;52.346;13.622;2023-06-10T03:26:03;10.15;;;7.90;;
49858;SDS011;35756;52.346;13.622;2023-06-10T03:28:35;10.27;;;6.53;;
49858;SDS011;35756;52.346;13.622;2023-06-10T03:31:07;12.25;;;7.95;;
49858;SDS011;35756;52.346;13.622;2023-06-10T03:33:33;12.40;;;8.05;;
49858;SDS011;35756;52.346;13.622;2023-06-10T03:36:24;12.25;;;7.80;;
49858;SDS011;35756;52.346;13.622;2023-06-10T03:39:28;11.68;;;8.23;;
49858;SDS011;35756;52.346;13.622;2023-06-10T03:41:57;10.45;;;7.95;;
49858;SDS011;35756;52.346;13.622;2023-06-10T03:44:51;12.20;;;8.32;;
49858;SDS011;35756;52.346;13.622;2023-06-10T03:49:49;17.65;;;8.55;;
49858;SDS011;35756;52.346;13.622;2023-06-10T03:52:17;14.30;;;8.88;;
49858;SDS011;35756;52.346;13.622;2023-06-10T03:55:18;11.18;;;8.25;;
49858;SDS011;35756;52.346;13.622;2023-06-10T03:57:56;12.95;;;8.20;;
49858;SDS011;35756;52.346;13.622;2023-06-10T04:00:43;15.52;;;7.22;;
49858;SDS011;35756;52.346;13.622;2023-06-10T04:03:22;15.27;;;7.72;;
49858;SDS011;35756;52.346;13.622;2023-06-10T04:05:49;12.95;;;6.43;;
49858;SDS011;35756;52.346;13.622;2023-06-10T04:08:43;14.00;;;6.65;;
49858;SDS011;35756;52.346;13.622;2023-06-10T04:14:14;14.02;;;7.75;;
49858;SDS011;35756;52.346;13.622;2023-06-10T04:16:47;11.75;;;6.28;;
49858;SDS011;35756;52.346;13.622;2023-06-10T04:19:28;9.32;;;7.07;;
49858;SDS011;35756;52.346;13.622;2023-06-10T04:22:04;13.25;;;7.65;;
49858;SDS011;35756;52.346;13.622;2023-06-10T04:24:32;10.02;;;7.43;;
49858;SDS011;35756;52.346;13.622;2023-06-10T04:27:00;12.73;;;6.93;;
49858;SDS011;35756;52.346;13.622;2023-06-10T04:29:28;13.18;;;6.75;;
49858;SDS011;35756;52.346;13.622;2023-06-10T04:31:58;12.63;;;7.47;;
49858;SDS011;35756;52.346;13.622;2023-06-10T04:37:04;12.43;;;6.47;;
49858;SDS011;35756;52.346;13.622;2023-06-10T04:40:15;11.25;;;6.57;;
49858;SDS011;35756;52.346;13.622;2023-06-10T04:42:57;13.20;;;6.82;;
49858;SDS011;35756;52.346;13.622;2023-06-10T04:45:29;12.52;;;7.18;;
49858;SDS011;35756;52.346;13.622;2023-06-10T04:47:56;11.57;;;6.45;;
49858;SDS011;35756;52.346;13.622;2023-06-10T04:50:46;10.68;;;6.03;;
49858;SDS011;35756;52.346;13.622;2023-06-10T04:54:01;11.27;;;7.28;;
49858;SDS011;35756;52.346;13.622;2023-06-10T04:56:56;12.90;;;7.50;;
49858;SDS011;35756;52.346;13.622;2023-06-10T04:59:29;12.15;;;7.05;;
49858;SDS011;35756;52.346;13.622;2023-06-10T05:01:57;8.63;;;6.40;;
49858;SDS011;35756;52.346;13.622;2023-06-10T05:04:23;12.82;;;7.15;;
49858;SDS011;35756;52.346;13.622;2023-06-10T05:07:04;10.68;;;6.47;;
49858;SDS011;35756;52.346;13.622;2023-06-10T05:09:35;10.00;;;6.65;;
49858;SDS011;35756;52.346;13.622;2023-06-10T05:14:58;9.57;;;6.22;;
49858;SDS011;35756;52.346;13.622;2023-06-10T05:17:49;9.77;;;6.53;;
49858;SDS011;35756;52.346;13.622;2023-06-10T05:24:03;11.07;;;8.48;;
49858;SDS011;35756;52.346;13.622;2023-06-10T05:26:39;8.23;;;7.28;;
49858;SDS011;35756;52.346;13.622;2023-06-10T05:29:08;12.98;;;7.10;;
49858;SDS011;35756;52.346;13.622;2023-06-10T05:31:49;9.52;;;7.47;;
49858;SDS011;35756;52.346;13.622;2023-06-10T05:34:31;10.68;;;6.32;;
49858;SDS011;35756;52.346;13.622;2023-06-10T05:37:00;10.43;;;5.93;;
49858;SDS011;35756;52.346;13.622;2023-06-10T05:39:37;10.35;;;6.68;;
49858;SDS011;35756;52.346;13.622;2023-06-10T05:42:29;8.88;;;5.07;;
49858;SDS011;35756;52.346;13.622;2023-06-10T05:44:55;8.98;;;5.72;;
49858;SDS011;35756;52.346;13.622;2023-06-10T05:47:27;7.25;;;5.20;;
49858;SDS011;35756;52.346;13.622;2023-06-10T05:50:01;8.40;;;5.23;;
49858;SDS011;35756;52.346;13.622;2023-06-10T05:55:31;8.38;;;5.13;;
49858;SDS011;35756;52.346;13.622;2023-06-10T05:58:39;10.90;;;5.68;;
49858;SDS011;35756;52.346;13.622;2023-06-10T06:01:10;10.07;;;5.65;;
49858;SDS011;35756;52.346;13.622;2023-06-10T06:04:29;8.57;;;5.50;;
49858;SDS011;35756;52.346;13.622;2023-06-10T06:07:18;11.50;;;5.90;;
49858;SDS011;35756;52.346;13.622;2023-06-10T06:09:57;9.10;;;5.65;;
49858;SDS011;35756;52.346;13.622;2023-06-10T06:19:15;9.15;;;5.68;;
49858;SDS011;35756;52.346;13.622;2023-06-10T06:24:48;9.68;;;5.78;;
49858;SDS011;35756;52.346;13.622;2023-06-10T06:27:19;8.95;;;5.70;;
49858;SDS011;35756;52.346;13.622;2023-06-10T06:29:48;9.10;;;5.78;;
49858;SDS011;35756;52.346;13.622;2023-06-10T06:32:16;9.15;;;5.85;;
49858;SDS011;35756;52.346;13.622;2023-06-10T06:35:27;9.60;;;5.70;;
49858;SDS011;35756;52.346;13.622;2023-06-10T06:38:12;9.75;;;5.90;;
49858;SDS011;35756;52.346;13.622;2023-06-10T06:41:01;10.70;;;6.25;;
49858;SDS011;35756;52.346;13.622;2023-06-10T06:43:28;9.32;;;6.20;;
49858;SDS011;35756;52.346;13.622;2023-06-10T06:46:19;10.88;;;6.00;;
49858;SDS011;35756;52.346;13.622;2023-06-10T06:49:07;7.32;;;5.60;;
49858;SDS011;35756;52.346;13.622;2023-06-10T06:54:25;11.88;;;6.07;;
49858;SDS011;35756;52.346;13.622;2023-06-10T06:57:06;8.65;;;5.45;;
49858;SDS011;35756;52.346;13.622;2023-06-10T06:59:52;8.68;;;6.10;;
49858;SDS011;35756;52.346;13.622;2023-06-10T07:02:18;8.20;;;6.30;;
49858;SDS011;35756;52.346;13.622;2023-06-10T07:04:52;10.10;;;6.82;;
49858;SDS011;35756;52.346;13.622;2023-06-10T07:07:24;12.38;;;6.95;;
49858;SDS011;35756;52.346;13.622;2023-06-10T07:09:55;12.20;;;6.38;;
49858;SDS011;35756;52.346;13.622;2023-06-10T07:19:04;9.98;;;6.70;;
49858;SDS011;35756;52.346;13.622;2023-06-10T07:24:42;11.13;;;6.88;;
49858;SDS011;35756;52.346;13.622;2023-06-10T07:27:28;9.80;;;7.53;;
49858;SDS011;35756;52.346;13.622;2023-06-10T07:30:27;9.38;;;7.20;;
49858;SDS011;35756;52.346;13.622;2023-06-10T07:32:58;9.73;;;6.57;;
49858;SDS011;35756;52.346;13.622;2023-06-10T07:35:24;7.65;;;6.43;;
49858;SDS011;35756;52.346;13.622;2023-06-10T07:37:58;11.82;;;7.35;;
49858;SDS011;35756;52.346;13.622;2023-06-10T07:43:34;9.70;;;6.88;;
49858;SDS011;35756;52.346;13.622;2023-06-10T07:49:04;11.50;;;6.78;;
49858;SDS011;35756;52.346;13.622;2023-06-10T07:51:53;10.98;;;8.02;;
49858;SDS011;35756;52.346;13.622;2023-06-10T07:54:50;8.68;;;6.15;;
49858;SDS011;35756;52.346;13.622;2023-06-10T07:57:24;15.23;;;7.47;;
49858;SDS011;35756;52.346;13.622;2023-06-10T08:00:01;10.18;;;6.72;;
49858;SDS011;35756;52.346;13.622;2023-06-10T08:02:39;9.60;;;6.67;;
49858;SDS011;35756;52.346;13.622;2023-06-10T08:11:00;10.80;;;6.40;;
49858;SDS011;35756;52.346;13.622;2023-06-10T08:13:46;10.93;;;7.68;;
49858;SDS011;35756;52.346;13.622;2023-06-10T08:19:36;10.15;;;6.78;;
49858;SDS011;35756;52.346;13.622;2023-06-10T08:25:59;9.43;;;7.07;;
49858;SDS011;35756;52.346;13.622;2023-06-10T08:28:30;12.00;;;6.68;;
49858;SDS011;35756;52.346;13.622;2023-06-10T08:30:55;8.40;;;6.40;;
49858;SDS011;35756;52.346;13.622;2023-06-10T08:33:51;13.13;;;6.65;;
49858;SDS011;35756;52.346;13.622;2023-06-10T08:39:28;7.20;;;6.50;;
49858;SDS011;35756;52.346;13.622;2023-06-10T08:45:06;7.85;;;6.65;;
49858;SDS011;35756;52.346;13.622;2023-06-10T08:47:55;9.60;;;6.80;;
49858;SDS011;35756;52.346;13.622;2023-06-10T08:50:22;7.60;;;6.70;;
49858;SDS011;35756;52.346;13.622;2023-06-10T08:52:53;9.90;;;7.22;;
49858;SDS011;35756;52.346;13.622;2023-06-10T08:55:41;13.75;;;7.35;;
49858;SDS011;35756;52.346;13.622;2023-06-10T08:58:17;9.57;;;7.25;;
49858;SDS011;35756;52.346;13.622;2023-06-10T09:00:46;9.93;;;7.40;;
49858;SDS011;35756;52.346;13.622;2023-06-10T09:03:12;13.98;;;6.82;;
49858;SDS011;35756;52.346;13.622;2023-06-10T09:06:04;9.55;;;6.80;;
49858;SDS011;35756;52.346;13.622;2023-06-10T09:08:35;11.80;;;6.57;;
49858;SDS011;35756;52.346;13.622;2023-06-10T09:11:06;9.55;;;6.85;;
49858;SDS011;35756;52.346;13.622;2023-06-10T09:13:37;8.85;;;6.63;;
49858;SDS011;35756;52.346;13.622;2023-06-10T09:18:54;12.25;;;6.55;;
49858;SDS011;35756;52.346;13.622;2023-06-10T09:21:21;11.73;;;7.18;;
49858;SDS011;35756;52.346;13.622;2023-06-10T09:23:58;10.13;;;7.22;;
49858;SDS011;35756;52.346;13.622;2023-06-10T09:26:41;8.98;;;7.10;;
49858;SDS011;35756;52.346;13.622;2023-06-10T09:29:11;11.70;;;6.65;;
49858;SDS011;35756;52.346;13.622;2023-06-10T09:32:00;11.23;;;7.28;;
49858;SDS011;35756;52.346;13.622;2023-06-10T09:34:36;8.77;;;6.53;;
49858;SDS011;35756;52.346;13.622;2023-06-10T09:37:04;7.65;;;6.70;;
49858;SDS011;35756;52.346;13.622;2023-06-10T09:39:37;8.45;;;6.43;;
49858;SDS011;35756;52.346;13.622;2023-06-10T09:42:21;8.00;;;6.97;;
49858;SDS011;35756;52.346;13.622;2023-06-10T09:48:09;9.18;;;6.55;;
49858;SDS011;35756;52.346;13.622;2023-06-10T09:50:46;10.35;;;6.53;;
49858;SDS011;35756;52.346;13.622;2023-06-10T09:53:11;9.07;;;6.22;;
49858;SDS011;35756;52.346;13.622;2023-06-10T09:59:07;9.43;;;7.03;;
49858;SDS011;35756;52.346;13.622;2023-06-10T10:01:42;8.38;;;6.28;;
49858;SDS011;35756;52.346;13.622;2023-06-10T10:04:19;9.48;;;6.60;;
49858;SDS011;35756;52.346;13.622;2023-06-10T10:07:05;7.78;;;6.20;;
49858;SDS011;35756;52.346;13.622;2023-06-10T10:09:42;10.00;;;6.95;;
49858;SDS011;35756;52.346;13.622;2023-06-10T10:12:11;8.25;;;6.35;;
49858;SDS011;35756;52.346;13.622;2023-06-10T10:14:49;8.85;;;6.97;;
49858;SDS011;35756;52.346;13.622;2023-06-10T10:17:40;7.65;;;6.40;;
49858;SDS011;35756;52.346;13.622;2023-06-10T10:20:14;7.65;;;6.57;;
49858;SDS011;35756;52.346;13.622;2023-06-10T10:22:52;9.00;;;6.30;;
49858;SDS011;35756;52.346;13.622;2023-06-10T10:29:07;8.77;;;6.25;;
49858;SDS011;35756;52.346;13.622;2023-06-10T10:32:01;9.40;;;6.38;;
49858;SDS011;35756;52.346;13.622;2023-06-10T10:37:48;24.75;;;7.38;;
49858;SDS011;35756;52.346;13.622;2023-06-10T10:40:44;20.98;;;6.97;;
49858;SDS011;35756;52.346;13.622;2023-06-10T10:43:13;16.75;;;6.47;;
49858;SDS011;35756;52.346;13.622;2023-06-10T10:45:45;22.63;;;6.82;;
49858;SDS011;35756;52.346;13.622;2023-06-10T10:51:35;6.78;;;5.60;;
49858;SDS011;35756;52.346;13.622;2023-06-10T10:54:45;8.68;;;6.00;;
49858;SDS011;35756;52.346;13.622;2023-06-10T10:57:14;6.82;;;5.55;;
49858;SDS011;35756;52.346;13.622;2023-06-10T11:02:51;8.38;;;6.07;;
49858;SDS011;35756;52.346;13.622;2023-06-10T11:05:52;10.30;;;5.80;;
49858;SDS011;35756;52.346;13.622;2023-06-10T11:11:18;9.20;;;5.80;;
49858;SDS011;35756;52.346;13.622;2023-06-10T11:13:58;7.47;;;5.90;;
49858;SDS011;35756;52.346;13.622;2023-06-10T11:16:31;10.00;;;6.10;;
49858;SDS011;35756;52.346;13.622;2023-06-10T11:21:34;9.73;;;6.13;;
49858;SDS011;35756;52.346;13.622;2023-06-10T11:24:22;8.35;;;5.80;;
49858;SDS011;35756;52.346;13.622;2023-06-10T11:27:18;8.98;;;5.60;;
49858;SDS011;35756;52.346;13.622;2023-06-10T11:30:22;7.40;;;5.72;;
49858;SDS011;35756;52.346;13.622;2023-06-10T11:32:56;9.43;;;5.70;;
49858;SDS011;35756;52.346;13.622;2023-06-10T11:35:24;8.02;;;5.68;;
49858;SDS011;35756;52.346;13.622;2023-06-10T11:37:55;8.77;;;6.45;;
49858;SDS011;35756;52.346;13.622;2023-06-10T11:40:23;9.65;;;6.13;;
49858;SDS011;35756;52.346;13.622;2023-06-10T11:43:06;8.45;;;5.47;;
49858;SDS011;35756;52.346;13.622;2023-06-10T11:45:43;9.30;;;5.80;;
49858;SDS011;35756;52.346;13.622;2023-06-10T11:48:18;8.10;;;6.32;;
49858;SDS011;35756;52.346;13.622;2023-06-10T11:50:57;6.82;;;5.85;;
49858;SDS011;35756;52.346;13.622;2023-06-10T11:53:48;7.47;;;6.13;;
49858;SDS011;35756;52.346;13.622;2023-06-10T11:59:11;8.55;;;6.30;;
49858;SDS011;35756;52.346;13.622;2023-06-10T12:01:45;7.68;;;6.28;;
49858;SDS011;35756;52.346;13.622;2023-06-10T12:04:20;12.02;;;6.20;;
49858;SDS011;35756;52.346;13.622;2023-06-10T12:07:25;9.93;;;6.07;;
49858;SDS011;35756;52.346;13.622;2023-06-10T12:10:11;8.25;;;5.65;;
49858;SDS011;35756;52.346;13.622;2023-06-10T12:12:42;8.05;;;6.22;;
49858;SDS011;35756;52.346;13.622;2023-06-10T12:18:32;8.80;;;6.05;;
49858;SDS011;35756;52.346;13.622;2023-06-10T12:21:16;9.75;;;6.00;;
49858;SDS011;35756;52.346;13.622;2023-06-10T12:24:01;8.75;;;6.10;;
49858;SDS011;35756;52.346;13.622;2023-06-10T12:26:39;7.82;;;5.75;;
49858;SDS011;35756;52.346;13.622;2023-06-10T12:29:21;10.98;;;6.43;;
49858;SDS011;35756;52.346;13.622;2023-06-10T12:31:58;7.43;;;6.22;;
49858;SDS011;35756;52.346;13.622;2023-06-10T12:35:12;8.85;;;6.47;;
49858;SDS011;35756;52.346;13.622;2023-06-10T12:38:13;7.85;;;5.57;;
49858;SDS011;35756;52.346;13.622;2023-06-10T12:40:39;6.30;;;5.68;;
49858;SDS011;35756;52.346;13.622;2023-06-10T12:43:08;7.47;;;5.75;;
49858;SDS011;35756;52.346;13.622;2023-06-10T12:45:37;7.65;;;6.22;;
49858;SDS011;35756;52.346;13.622;2023-06-10T12:48:24;8.63;;;5.70;;
49858;SDS011;35756;52.346;13.622;2023-06-10T12:50:56;6.65;;;5.40;;
49858;SDS011;35756;52.346;13.622;2023-06-10T12:53:26;8.35;;;5.80;;
49858;SDS011;35756;52.346;13.622;2023-06-10T12:55:54;6.88;;;5.80;;
49858;SDS011;35756;52.346;13.622;2023-06-10T12:58:22;12.60;;;5.18;;
49858;SDS011;35756;52.346;13.622;2023-06-10T13:00:51;7.75;;;5.07;;
49858;SDS011;35756;52.346;13.622;2023-06-10T13:03:20;7.00;;;4.97;;
49858;SDS011;35756;52.346;13.622;2023-06-10T13:05:49;7.50;;;5.35;;
49858;SDS011;35756;52.346;13.622;2023-06-10T13:08:19;7.55;;;4.95;;
49858;SDS011;35756;52.346;13.622;2023-06-10T13:10:44;5.97;;;4.65;;
49858;SDS011;35756;52.346;13.622;2023-06-10T13:13:10;10.50;;;4.70;;
49858;SDS011;35756;52.346;13.622;2023-06-10T13:15:39;8.10;;;5.07;;
49858;SDS011;35756;52.346;13.622;2023-06-10T13:18:08;8.65;;;5.13;;
49858;SDS011;35756;52.346;13.622;2023-06-10T13:20:36;5.57;;;5.05;;
49858;SDS011;35756;52.346;13.622;2023-06-10T13:23:01;7.35;;;4.82;;
49858;SDS011;35756;52.346;13.622;2023-06-10T13:25:33;5.70;;;4.53;;
49858;SDS011;35756;52.346;13.622;2023-06-10T13:28:14;7.50;;;4.80;;
49858;SDS011;35756;52.346;13.622;2023-06-10T13:30:46;6.18;;;5.18;;
49858;SDS011;35756;52.346;13.622;2023-06-10T13:33:26;6.70;;;4.65;;
49858;SDS011;35756;52.346;13.622;2023-06-10T13:36:04;6.30;;;4.78;;
49858;SDS011;35756;52.346;13.622;2023-06-10T13:38:37;6.55;;;4.55;;
49858;SDS011;35756;52.346;13.622;2023-06-10T13:41:02;5.63;;;4.80;;
49858;SDS011;35756;52.346;13.622;2023-06-10T13:44:06;8.00;;;5.30;;
49858;SDS011;35756;52.346;13.622;2023-06-10T13:46:41;6.53;;;4.95;;
49858;SDS011;35756;52.346;13.622;2023-06-10T13:49:41;5.90;;;5.15;;
49858;SDS011;35756;52.346;13.622;2023-06-10T13:52:12;9.90;;;5.43;;
49858;SDS011;35756;52.346;13.622;2023-06-10T13:54:40;7.97;;;5.50;;
49858;SDS011;35756;52.346;13.622;2023-06-10T13:57:08;7.00;;;5.18;;
49858;SDS011;35756;52.346;13.622;2023-06-10T14:00:06;8.35;;;5.45;;
49858;SDS011;35756;52.346;13.622;2023-06-10T14:02:32;5.88;;;4.97;;
49858;SDS011;35756;52.346;13.622;2023-06-10T14:05:06;8.32;;;5.47;;
49858;SDS011;35756;52.346;13.622;2023-06-10T14:07:43;7.60;;;5.78;;
49858;SDS011;35756;52.346;13.622;2023-06-10T14:10:09;6.25;;;5.22;;
49858;SDS011;35756;52.346;13.622;2023-06-10T14:12:37;8.25;;;5.82;;
49858;SDS011;35756;52.346;13.622;2023-06-10T14:15:17;8.93;;;5.57;;
49858;SDS011;35756;52.346;13.622;2023-06-10T14:21:08;7.60;;;5.47;;
49858;SDS011;35756;52.346;13.622;2023-06-10T14:23:35;7.13;;;5.53;;
49858;SDS011;35756;52.346;13.622;2023-06-10T14:26:18;9.30;;;5.90;;
49858;SDS011;35756;52.346;13.622;2023-06-10T14:28:51;6.82;;;4.88;;
49858;SDS011;35756;52.346;13.622;2023-06-10T14:31:45;8.70;;;6.25;;
49858;SDS011;35756;52.346;13.622;2023-06-10T14:34:47;9.18;;;6.90;;
49858;SDS011;35756;52.346;13.622;2023-06-10T14:37:18;7.68;;;5.80;;
49858;SDS011;35756;52.346;13.622;2023-06-10T14:39:43;9.75;;;6.15;;
49858;SDS011;35756;52.346;13.622;2023-06-10T14:42:11;9.65;;;6.45;;
49858;SDS011;35756;52.346;13.622;2023-06-10T14:44:39;9.38;;;5.90;;
49858;SDS011;35756;52.346;13.622;2023-06-10T14:47:04;8.07;;;5.30;;
49858;SDS011;35756;52.346;13.622;2023-06-10T14:49:33;7.43;;;5.25;;
49858;SDS011;35756;52.346;13.622;2023-06-10T14:52:04;11.07;;;5.43;;
49858;SDS011;35756;52.346;13.622;2023-06-10T14:54:56;6.22;;;4.82;;
49858;SDS011;35756;52.346;13.622;2023-06-10T14:57:34;9.55;;;4.95;;
49858;SDS011;35756;52.346;13.622;2023-06-10T15:00:02;9.38;;;4.60;;
49858;SDS011;35756;52.346;13.622;2023-06-10T15:02:52;6.47;;;4.72;;
49858;SDS011;35756;52.346;13.622;2023-06-10T15:05:20;10.40;;;4.65;;
49858;SDS011;35756;52.346;13.622;2023-06-10T15:07:48;8.30;;;4.90;;
49858;SDS011;35756;52.346;13.622;2023-06-10T15:10:13;6.90;;;4.63;;
49858;SDS011;35756;52.346;13.622;2023-06-10T15:12:39;7.55;;;5.03;;
49858;SDS011;35756;52.346;13.622;2023-06-10T15:15:09;8.30;;;5.13;;
49858;SDS011;35756;52.346;13.622;2023-06-10T15:17:47;10.32;;;4.53;;
49858;SDS011;35756;52.346;13.622;2023-06-10T15:20:22;5.63;;;4.40;;
49858;SDS011;35756;52.346;13.622;2023-06-10T15:23:28;9.48;;;4.70;;
49858;SDS011;35756;52.346;13.622;2023-06-10T15:26:18;7.68;;;4.30;;
49858;SDS011;35756;52.346;13.622;2023-06-10T15:28:52;6.28;;;4.53;;
49858;SDS011;35756;52.346;13.622;2023-06-10T15:31:38;5.90;;;4.32;;
49858;SDS011;35756;52.346;13.622;2023-06-10T15:34:06;5.55;;;4.95;;
49858;SDS011;35756;52.346;13.622;2023-06-10T15:36:33;6.60;;;4.65;;
49858;SDS011;35756;52.346;13.622;2023-06-10T15:39:08;8.52;;;4.50;;
49858;SDS011;35756;52.346;13.622;2023-06-10T15:41:49;7.43;;;4.88;;
49858;SDS011;35756;52.346;13.622;2023-06-10T15:44:14;7.45;;;5.00;;
49858;SDS011;35756;52.346;13.622;2023-06-10T15:46:52;7.88;;;4.53;;
49858;SDS011;35756;52.346;13.622;2023-06-10T15:49:43;7.22;;;4.70;;
49858;SDS011;35756;52.346;13.622;2023-06-10T15:52:26;6.95;;;4.63;;
49858;SDS011;35756;52.346;13.622;2023-06-10T15:54:59;6.78;;;4.40;;
49858;SDS011;35756;52.346;13.622;2023-06-10T15:57:45;7.45;;;4.55;;
49858;SDS011;35756;52.346;13.622;2023-06-10T16:02:59;9.15;;;4.80;;
49858;SDS011;35756;52.346;13.622;2023-06-10T16:05:25;5.55;;;4.47;;
49858;SDS011;35756;52.346;13.622;2023-06-10T16:07:50;8.35;;;4.47;;
49858;SDS011;35756;52.346;13.622;2023-06-10T16:10:31;6.13;;;4.50;;
49858;SDS011;35756;52.346;13.622;2023-06-10T16:13:22;5.43;;;4.07;;
49858;SDS011;35756;52.346;13.622;2023-06-10T16:15:52;8.73;;;5.07;;
49858;SDS011;35756;52.346;13.622;2023-06-10T16:18:21;8.70;;;4.60;;
49858;SDS011;35756;52.346;13.622;2023-06-10T16:20:46;5.72;;;4.32;;
49858;SDS011;35756;52.346;13.622;2023-06-10T16:23:22;9.30;;;4.82;;
49858;SDS011;35756;52.346;13.622;2023-06-10T16:25:58;6.88;;;4.80;;
49858;SDS011;35756;52.346;13.622;2023-06-10T16:28:23;8.23;;;5.05;;
49858;SDS011;35756;52.346;13.622;2023-06-10T16:30:51;6.78;;;4.35;;
49858;SDS011;35756;52.346;13.622;2023-06-10T16:33:30;8.13;;;4.68;;
49858;SDS011;35756;52.346;13.622;2023-06-10T16:36:05;6.93;;;4.78;;
49858;SDS011;35756;52.346;13.622;2023-06-10T16:38:33;7.95;;;5.10;;
49858;SDS011;35756;52.346;13.622;2023-06-10T16:41:06;6.90;;;4.22;;
49858;SDS011;35756;52.346;13.622;2023-06-10T16:43:49;5.97;;;4.50;;
49858;SDS011;35756;52.346;13.622;2023-06-10T16:46:14;5.93;;;4.72;;
49858;SDS011;35756;52.346;13.622;2023-06-10T16:48:45;13.48;;;5.93;;
49858;SDS011;35756;52.346;13.622;2023-06-10T16:51:10;6.40;;;4.55;;
49858;SDS011;35756;52.346;13.622;2023-06-10T16:53:42;6.70;;;4.35;;
49858;SDS011;35756;52.346;13.622;2023-06-10T16:56:13;6.10;;;4.40;;
49858;SDS011;35756;52.346;13.622;2023-06-10T16:58:44;7.00;;;3.90;;
49858;SDS011;35756;52.346;13.622;2023-06-10T17:01:09;10.07;;;4.35;;
49858;SDS011;35756;52.346;13.622;2023-06-10T17:03:37;7.55;;;4.25;;
49858;SDS011;35756;52.346;13.622;2023-06-10T17:06:03;8.50;;;4.40;;
49858;SDS011;35756;52.346;13.622;2023-06-10T17:08:29;8.45;;;5.00;;
49858;SDS011;35756;52.346;13.622;2023-06-10T17:10:57;6.88;;;4.35;;
49858;SDS011;35756;52.346;13.622;2023-06-10T17:13:52;7.90;;;4.03;;
49858;SDS011;35756;52.346;13.622;2023-06-10T17:16:20;8.43;;;4.50;;
49858;SDS011;35756;52.346;13.622;2023-06-10T17:18:54;7.18;;;4.70;;
49858;SDS011;35756;52.346;13.622;2023-06-10T17:21:40;7.07;;;4.20;;
49858;SDS011;35756;52.346;13.622;2023-06-10T17:24:05;7.35;;;3.95;;
49858;SDS011;35756;52.346;13.622;2023-06-10T17:26:35;10.02;;;4.43;;
49858;SDS011;35756;52.346;13.622;2023-06-10T17:29:10;6.55;;;4.50;;
49858;SDS011;35756;52.346;13.622;2023-06-10T17:31:45;5.78;;;4.57;;
49858;SDS011;35756;52.346;13.622;2023-06-10T17:34:17;6.80;;;4.22;;
49858;SDS011;35756;52.346;13.622;2023-06-10T17:36:54;6.97;;;4.55;;